createdAt,value
2019-05-06T00:01:24.301Z,9.33
2019-05-06T00:04:00.880Z,9.65
2019-05-06T00:06:34.605Z,10.20
2019-05-06T00:09:09.383Z,10.90
2019-05-06T00:11:44.825Z,11.20
2019-05-06T00:14:19.116Z,10.20
2019-05-06T00:16:55.107Z,9.83
2019-05-06T00:19:29.485Z,9.33
2019-05-06T00:22:04.787Z,9.45
2019-05-06T00:24:45.859Z,9.40
2019-05-06T00:27:29.426Z,9.50
2019-05-06T00:30:04.512Z,9.13
2019-05-06T00:32:39.093Z,8.40
2019-05-06T00:35:14.476Z,7.25
2019-05-06T00:37:49.120Z,7.67
2019-05-06T00:40:29.806Z,8.00
2019-05-06T00:43:08.781Z,6.70
2019-05-06T00:45:44.307Z,7.20
2019-05-06T00:48:24.287Z,7.25
2019-05-06T00:50:58.759Z,7.85
2019-05-06T00:53:34.836Z,7.65
2019-05-06T00:56:11.619Z,7.28
2019-05-06T00:58:46.311Z,7.28
2019-05-06T01:01:27.022Z,7.17
2019-05-06T01:03:56.700Z,7.22
2019-05-06T01:06:34.338Z,6.87
2019-05-06T01:09:11.547Z,7.83
2019-05-06T01:11:46.928Z,8.48
2019-05-06T01:14:27.424Z,7.30
2019-05-06T01:17:03.877Z,7.73
2019-05-06T01:19:37.862Z,8.30
2019-05-06T01:22:14.054Z,8.18
2019-05-06T01:24:49.811Z,8.58
2019-05-06T01:27:24.160Z,7.60
2019-05-06T01:29:58.702Z,8.03
2019-05-06T01:32:34.538Z,7.83
2019-05-06T01:35:09.088Z,8.63
2019-05-06T01:37:45.578Z,7.75
2019-05-06T01:40:31.590Z,8.25
2019-05-06T01:43:10.414Z,8.55
2019-05-06T01:45:44.941Z,7.90
2019-05-06T01:48:21.114Z,8.33
2019-05-06T01:50:56.931Z,7.87
2019-05-06T01:53:33.765Z,9.05
2019-05-06T01:56:07.620Z,8.33
2019-05-06T01:58:43.854Z,7.78
2019-05-06T02:01:18.180Z,7.67
2019-05-06T02:03:53.827Z,7.97
2019-05-06T02:06:28.771Z,7.83
2019-05-06T02:09:04.581Z,8.00
2019-05-06T02:11:39.485Z,8.05
2019-05-06T02:14:14.043Z,7.47
2019-05-06T02:16:48.116Z,8.33
2019-05-06T02:19:24.189Z,7.95
2019-05-06T02:22:13.755Z,7.42
2019-05-06T02:25:00.431Z,8.53
2019-05-06T02:27:34.872Z,7.70
2019-05-06T02:30:36.757Z,8.78
2019-05-06T02:33:35.836Z,8.68
2019-05-06T02:36:25.796Z,7.85
2019-05-06T02:39:03.387Z,7.57
2019-05-06T02:41:36.518Z,7.62
2019-05-06T02:44:13.670Z,8.25
2019-05-06T02:46:53.294Z,7.50
2019-05-06T02:49:39.595Z,7.80
2019-05-06T02:52:14.165Z,7.65
2019-05-06T02:54:48.930Z,7.30
2019-05-06T02:57:24.549Z,7.67
2019-05-06T02:59:58.910Z,7.80
2019-05-06T03:02:41.908Z,7.47
2019-05-06T03:05:12.836Z,7.05
2019-05-06T03:07:45.697Z,7.85
2019-05-06T03:10:20.273Z,8.23
2019-05-06T03:12:55.888Z,8.03
2019-05-06T03:15:30.293Z,7.90
2019-05-06T03:18:05.126Z,7.75
2019-05-06T03:21:04.229Z,7.45
2019-05-06T03:23:43.973Z,7.40
2019-05-06T03:26:18.610Z,7.33
2019-05-06T03:28:53.576Z,7.85
2019-05-06T03:31:28.309Z,7.97
2019-05-06T03:34:28.414Z,8.40
2019-05-06T03:36:42.579Z,7.83
2019-05-06T03:39:15.331Z,8.50
2019-05-06T03:41:49.512Z,7.28
2019-05-06T03:44:33.076Z,8.73
2019-05-06T03:47:34.081Z,8.38
2019-05-06T03:50:06.854Z,7.75
2019-05-06T03:52:43.044Z,7.58
2019-05-06T03:55:17.633Z,7.45
2019-05-06T03:57:53.892Z,7.25
2019-05-06T04:00:27.862Z,7.25
2019-05-06T04:03:03.273Z,8.10
2019-05-06T04:05:37.735Z,8.53
2019-05-06T04:08:12.816Z,8.03
2019-05-06T04:10:47.815Z,8.23
2019-05-06T04:13:25.107Z,8.20
2019-05-06T04:16:22.865Z,7.28
2019-05-06T04:19:09.893Z,7.62
2019-05-06T04:21:53.302Z,7.30
2019-05-06T04:24:38.588Z,7.95
2019-05-06T04:27:48.275Z,7.62
2019-05-06T04:30:25.257Z,7.65
2019-05-06T04:33:03.209Z,7.87
2019-05-06T04:35:36.964Z,7.65
2019-05-06T04:38:13.991Z,8.50
2019-05-06T04:40:47.385Z,8.70
2019-05-06T04:43:26.270Z,8.20
2019-05-06T04:45:57.680Z,8.20
2019-05-06T04:48:32.937Z,7.67
2019-05-06T04:51:07.950Z,7.97
2019-05-06T04:53:44.097Z,7.72
2019-05-06T04:56:18.652Z,8.03
2019-05-06T04:58:53.795Z,7.72
2019-05-06T05:01:28.684Z,7.78
2019-05-06T05:04:03.660Z,7.50
2019-05-06T05:06:38.140Z,7.75
2019-05-06T05:09:16.574Z,6.95
2019-05-06T05:11:57.286Z,7.10
2019-05-06T05:14:51.785Z,6.97
2019-05-06T05:17:32.968Z,7.60
2019-05-06T05:20:08.409Z,7.55
2019-05-06T05:22:43.079Z,7.05
2019-05-06T05:25:17.506Z,7.40
2019-05-06T05:27:52.865Z,7.90
2019-05-06T05:30:32.704Z,7.97
2019-05-06T05:33:07.738Z,7.37
2019-05-06T05:35:43.274Z,7.05
2019-05-06T05:38:17.967Z,7.92
2019-05-06T05:40:52.678Z,7.78
2019-05-06T05:43:52.678Z,7.30
2019-05-06T05:46:27.698Z,7.75
2019-05-06T05:49:26.686Z,7.75
2019-05-06T05:52:03.219Z,7.53
2019-05-06T05:54:38.076Z,7.05
2019-05-06T05:57:12.708Z,7.40
2019-05-06T05:59:46.892Z,7.40
2019-05-06T06:02:23.622Z,7.37
2019-05-06T06:04:57.966Z,7.65
2019-05-06T06:07:32.778Z,7.30
2019-05-06T06:10:25.494Z,7.45
2019-05-06T06:13:06.322Z,7.08
2019-05-06T06:15:59.015Z,7.00
2019-05-06T06:18:53.103Z,7.37
2019-05-06T06:21:42.651Z,7.20
2019-05-06T06:24:22.575Z,7.35
2019-05-06T06:26:57.347Z,6.85
2019-05-06T06:29:32.408Z,7.03
2019-05-06T06:32:17.002Z,7.25
2019-05-06T06:35:11.339Z,7.20
2019-05-06T06:37:59.302Z,6.95
2019-05-06T06:40:34.883Z,6.97
2019-05-06T06:43:13.478Z,7.67
2019-05-06T06:45:47.785Z,7.15
2019-05-06T06:48:22.926Z,6.90
2019-05-06T06:50:57.698Z,7.05
2019-05-06T06:53:32.676Z,7.20
2019-05-06T06:56:34.620Z,6.55
2019-05-06T06:59:25.178Z,8.95
2019-05-06T07:02:08.647Z,7.50
2019-05-06T07:04:49.357Z,7.15
2019-05-06T07:07:39.414Z,7.47
2019-05-06T07:10:02.614Z,7.15
2019-05-06T07:12:36.936Z,6.80
2019-05-06T07:15:12.585Z,6.70
2019-05-06T07:17:46.741Z,7.97
2019-05-06T07:20:23.055Z,7.30
2019-05-06T07:22:57.729Z,6.87
2019-05-06T07:25:33.607Z,7.08
2019-05-06T07:28:08.320Z,6.65
2019-05-06T07:30:42.696Z,6.80
2019-05-06T07:33:16.873Z,6.65
2019-05-06T07:35:52.999Z,6.70
2019-05-06T07:38:27.356Z,6.65
2019-05-06T07:41:15.500Z,7.47
2019-05-06T07:44:23.534Z,6.37
2019-05-06T07:47:27.931Z,6.83
2019-05-06T07:50:02.765Z,7.07
2019-05-06T07:52:38.390Z,7.03
2019-05-06T07:55:12.782Z,6.65
2019-05-06T07:57:49.670Z,7.60
2019-05-06T08:00:23.146Z,7.37
2019-05-06T08:02:57.712Z,6.72
2019-05-06T08:05:32.566Z,6.80
2019-05-06T08:08:07.412Z,6.45
2019-05-06T08:10:42.349Z,7.58
2019-05-06T08:13:17.371Z,7.10
2019-05-06T08:15:53.111Z,6.92
2019-05-06T08:18:27.160Z,7.30
2019-05-06T08:21:03.084Z,7.25
2019-05-06T08:23:45.722Z,7.65
2019-05-06T08:26:22.264Z,7.40
2019-05-06T08:28:56.374Z,7.25
2019-05-06T08:31:32.713Z,7.58
2019-05-06T08:34:07.366Z,7.03
2019-05-06T08:37:00.095Z,7.40
2019-05-06T08:39:39.569Z,7.72
2019-05-06T08:42:15.093Z,8.48
2019-05-06T08:44:49.690Z,6.97
2019-05-06T08:47:24.102Z,7.33
2019-05-06T08:50:07.258Z,7.67
2019-05-06T08:53:08.861Z,7.60
2019-05-06T08:55:43.920Z,7.83
2019-05-06T08:58:18.891Z,7.65
2019-05-06T09:01:07.311Z,7.95
2019-05-06T09:03:42.261Z,7.80
2019-05-06T09:06:29.700Z,7.25
2019-05-06T09:08:57.488Z,7.90
2019-05-06T09:11:32.277Z,7.62
2019-05-06T09:14:09.955Z,8.10
2019-05-06T09:16:44.587Z,7.87
2019-05-06T09:19:19.110Z,7.97
2019-05-06T09:21:53.630Z,7.60
2019-05-06T09:24:28.303Z,7.63
2019-05-06T09:27:16.863Z,8.18
2019-05-06T09:29:53.252Z,8.30
2019-05-06T09:32:35.901Z,7.80
2019-05-06T09:35:09.439Z,7.53
2019-05-06T09:37:43.800Z,7.33
2019-05-06T09:40:18.270Z,7.95
2019-05-06T09:42:52.964Z,7.00
2019-05-06T09:45:27.267Z,8.13
2019-05-06T09:48:25.701Z,8.48
2019-05-06T09:51:02.757Z,8.08
2019-05-06T09:53:43.218Z,8.93
2019-05-06T09:56:27.532Z,8.73
2019-05-06T09:59:02.191Z,8.28
2019-05-06T10:01:37.003Z,7.72
2019-05-06T10:04:13.068Z,8.55
2019-05-06T10:06:56.386Z,8.20
2019-05-06T10:09:24.971Z,7.97
2019-05-06T10:12:01.933Z,8.08
2019-05-06T10:14:35.856Z,8.40
2019-05-06T10:17:23.206Z,8.55
2019-05-06T10:19:57.537Z,8.18
2019-05-06T10:22:32.654Z,8.48
2019-05-06T10:25:07.334Z,7.17
2019-05-06T10:27:42.884Z,8.48
2019-05-06T10:30:18.567Z,8.03
2019-05-06T10:32:58.835Z,7.50
2019-05-06T10:35:33.566Z,8.00
2019-05-06T10:38:22.799Z,7.95
2019-05-06T10:41:03.866Z,6.75
2019-05-06T10:43:43.168Z,7.65
2019-05-06T10:46:22.551Z,7.03
2019-05-06T10:48:57.040Z,7.70
2019-05-06T10:51:37.849Z,7.45
2019-05-06T10:54:12.985Z,7.78
2019-05-06T10:56:54.633Z,7.72
2019-05-06T10:59:26.496Z,7.58
2019-05-06T11:02:05.469Z,6.65
2019-05-06T11:04:43.378Z,7.42
2019-05-06T11:07:31.089Z,6.75
2019-05-06T11:09:54.228Z,7.08
2019-05-06T11:12:32.571Z,7.00
2019-05-06T11:15:07.026Z,7.33
2019-05-06T11:17:43.421Z,6.50
2019-05-06T11:20:17.203Z,6.62
2019-05-06T11:22:52.823Z,6.37
2019-05-06T11:25:28.053Z,6.67
2019-05-06T11:28:03.056Z,6.92
2019-05-06T11:30:54.079Z,6.35
2019-05-06T11:33:43.906Z,6.92
2019-05-06T11:36:37.626Z,7.17
2019-05-06T11:39:14.197Z,8.18
2019-05-06T11:42:01.450Z,8.13
2019-05-06T11:44:25.149Z,8.60
2019-05-06T11:46:59.479Z,8.15
2019-05-06T11:49:34.794Z,7.13
2019-05-06T11:52:10.209Z,7.33
2019-05-06T11:54:44.725Z,7.28
2019-05-06T11:57:19.101Z,7.50
2019-05-06T11:59:53.641Z,7.50
2019-05-06T12:02:29.276Z,7.00
2019-05-06T12:05:04.032Z,8.15
2019-05-06T12:07:38.994Z,8.33
2019-05-06T12:10:14.095Z,8.30
2019-05-06T12:13:07.391Z,7.92
2019-05-06T12:15:43.526Z,8.33
2019-05-06T12:18:22.969Z,7.83
2019-05-06T12:21:11.685Z,8.05
2019-05-06T12:23:39.676Z,7.10
2019-05-06T12:26:16.710Z,7.90
2019-05-06T12:28:53.778Z,6.97
2019-05-06T12:31:32.586Z,7.42
2019-05-06T12:34:05.965Z,7.40
2019-05-06T12:36:42.773Z,7.20
2019-05-06T12:39:36.147Z,7.08
2019-05-06T12:42:23.213Z,7.05
2019-05-06T12:45:06.071Z,6.50
2019-05-06T12:47:45.128Z,6.92
2019-05-06T12:50:19.685Z,7.30
2019-05-06T12:52:57.547Z,6.83
2019-05-06T12:55:30.077Z,6.97
2019-05-06T12:58:04.309Z,7.22
2019-05-06T13:00:38.614Z,6.83
2019-05-06T13:03:13.076Z,7.35
2019-05-06T13:05:47.784Z,7.87
2019-05-06T13:08:32.491Z,7.72
2019-05-06T13:11:02.442Z,6.78
2019-05-06T13:13:37.189Z,7.47
2019-05-06T13:16:12.589Z,7.15
2019-05-06T13:18:48.660Z,7.53
2019-05-06T13:21:23.125Z,7.30
2019-05-06T13:24:07.802Z,7.75
2019-05-06T13:26:43.067Z,8.68
2019-05-06T13:29:23.240Z,8.63
2019-05-06T13:31:57.816Z,8.63
2019-05-06T13:34:33.395Z,8.58
2019-05-06T13:37:08.544Z,7.70
2019-05-06T13:39:45.753Z,7.80
2019-05-06T13:42:22.814Z,8.15
2019-05-06T13:44:57.030Z,6.97
2019-05-06T13:47:48.230Z,7.47
2019-05-06T13:50:25.073Z,7.78
2019-05-06T13:53:09.249Z,7.70
2019-05-06T13:55:40.377Z,7.47
2019-05-06T13:58:14.627Z,7.80
2019-05-06T14:00:51.988Z,8.08
2019-05-06T14:03:26.176Z,8.20
2019-05-06T14:06:03.041Z,8.03
2019-05-06T14:08:42.131Z,8.80
2019-05-06T14:11:15.705Z,8.38
2019-05-06T14:13:50.025Z,8.83
2019-05-06T14:16:24.985Z,9.63
2019-05-06T14:18:59.476Z,8.65
2019-05-06T14:21:33.931Z,8.47
2019-05-06T14:24:08.853Z,9.03
2019-05-06T14:26:49.422Z,8.63
2019-05-06T14:29:32.971Z,8.48
2019-05-06T14:32:07.771Z,8.58
2019-05-06T14:34:43.269Z,7.70
2019-05-06T14:37:18.214Z,8.38
2019-05-06T14:39:59.197Z,8.08
2019-05-06T14:42:29.622Z,8.13
2019-05-06T14:45:04.299Z,8.50
2019-05-06T14:47:42.308Z,8.10
2019-05-06T14:50:16.463Z,7.70
2019-05-06T14:52:50.901Z,7.67
2019-05-06T14:55:30.049Z,7.15
2019-05-06T14:58:04.769Z,7.40
2019-05-06T15:00:39.369Z,8.03
2019-05-06T15:03:13.860Z,7.30
2019-05-06T15:05:48.580Z,7.50
2019-05-06T15:08:23.520Z,7.78
2019-05-06T15:10:58.390Z,6.87
2019-05-06T15:13:33.119Z,7.22
2019-05-06T15:16:14.250Z,7.37
2019-05-06T15:18:48.889Z,7.10
2019-05-06T15:21:36.975Z,7.28
2019-05-06T15:24:02.494Z,7.20
2019-05-06T15:26:36.136Z,7.72
2019-05-06T15:29:12.616Z,8.10
2019-05-06T15:32:03.115Z,7.15
2019-05-06T15:34:56.321Z,6.85
2019-05-06T15:37:36.383Z,6.62
2019-05-06T15:40:12.219Z,7.67
2019-05-06T15:42:46.596Z,7.20
2019-05-06T15:45:21.897Z,6.80
2019-05-06T15:47:56.342Z,6.90
2019-05-06T15:50:32.444Z,6.90
2019-05-06T15:53:06.925Z,6.10
2019-05-06T15:55:43.531Z,6.20
2019-05-06T15:58:17.656Z,6.67
2019-05-06T16:00:53.114Z,5.92
2019-05-06T16:03:27.882Z,6.03
2019-05-06T16:06:02.645Z,5.90
2019-05-06T16:08:37.415Z,5.08
2019-05-06T16:11:12.567Z,5.62
2019-05-06T16:13:47.227Z,5.67
2019-05-06T16:16:22.829Z,5.28
2019-05-06T16:18:57.562Z,5.53
2019-05-06T16:21:33.435Z,5.33
2019-05-06T16:24:15.663Z,5.15
2019-05-06T16:26:52.242Z,5.15
2019-05-06T16:29:37.969Z,5.20
2019-05-06T16:32:12.735Z,4.80
2019-05-06T16:34:47.358Z,5.00
2019-05-06T16:37:22.296Z,5.05
2019-05-06T16:39:57.049Z,4.80
2019-05-06T16:42:31.707Z,4.83
2019-05-06T16:45:07.092Z,4.83
2019-05-06T16:47:44.472Z,4.95
2019-05-06T16:50:19.343Z,4.78
2019-05-06T16:52:53.603Z,4.50
2019-05-06T16:55:54.987Z,5.28
2019-05-06T16:58:27.987Z,5.50
2019-05-06T17:01:03.279Z,5.08
2019-05-06T17:03:43.330Z,4.70
2019-05-06T17:06:22.921Z,4.97
2019-05-06T17:08:56.807Z,4.60
2019-05-06T17:11:34.242Z,5.40
2019-05-06T17:14:07.295Z,4.83
2019-05-06T17:16:42.358Z,5.08
2019-05-06T17:19:17.920Z,4.65
2019-05-06T17:21:53.295Z,4.72
2019-05-06T17:24:27.912Z,5.10
2019-05-06T17:27:02.818Z,5.12
2019-05-06T17:29:56.660Z,5.45
2019-05-06T17:32:37.678Z,5.08
2019-05-06T17:35:12.731Z,4.97
2019-05-06T17:38:02.998Z,5.45
2019-05-06T17:40:37.362Z,6.85
2019-05-06T17:43:12.990Z,6.40
2019-05-06T17:46:03.801Z,7.03
2019-05-06T17:48:37.422Z,6.67
2019-05-06T17:51:30.163Z,6.30
2019-05-06T17:54:05.351Z,6.70
2019-05-06T17:56:41.785Z,7.17
2019-05-06T17:59:15.725Z,6.72
2019-05-06T18:01:53.141Z,7.20
2019-05-06T18:04:28.073Z,7.05
2019-05-06T18:07:02.584Z,7.05
2019-05-06T18:09:37.219Z,7.28
2019-05-06T18:12:12.224Z,7.33
2019-05-06T18:14:46.742Z,7.25
2019-05-06T18:17:22.003Z,7.05
2019-05-06T18:19:57.040Z,7.25
2019-05-06T18:22:32.751Z,6.42
2019-05-06T18:25:07.600Z,6.83
2019-05-06T18:27:43.135Z,7.55
2019-05-06T18:30:22.595Z,7.10
2019-05-06T18:32:55.995Z,7.33
2019-05-06T18:35:33.810Z,6.87
2019-05-06T18:38:08.268Z,6.85
2019-05-06T18:40:43.894Z,7.40
2019-05-06T18:43:18.152Z,7.58
2019-05-06T18:45:52.906Z,7.40
2019-05-06T18:48:30.955Z,7.12
2019-05-06T18:51:03.394Z,7.20
2019-05-06T18:53:37.839Z,7.62
2019-05-06T18:56:12.650Z,7.33
2019-05-06T18:58:47.442Z,7.25
2019-05-06T19:01:23.418Z,7.33
2019-05-06T19:04:07.036Z,7.22
2019-05-06T19:06:42.266Z,7.75
2019-05-06T19:09:25.009Z,7.20
2019-05-06T19:11:59.625Z,7.35
2019-05-06T19:14:35.650Z,6.97
2019-05-06T19:17:10.062Z,7.08
2019-05-06T19:19:44.773Z,7.70
2019-05-06T19:22:19.188Z,7.78
2019-05-06T19:24:53.763Z,7.25
2019-05-06T19:27:28.012Z,8.00
2019-05-06T19:30:02.825Z,7.58
2019-05-06T19:32:37.194Z,7.20
2019-05-06T19:35:13.224Z,7.83
2019-05-06T19:37:47.554Z,7.60
2019-05-06T19:40:24.201Z,8.28
2019-05-06T19:42:58.850Z,8.38
2019-05-06T19:45:34.627Z,7.97
2019-05-06T19:48:13.389Z,7.90
2019-05-06T19:50:47.802Z,8.00
2019-05-06T19:53:23.666Z,7.22
2019-05-06T19:56:03.662Z,8.10
2019-05-06T19:58:38.043Z,8.10
2019-05-06T20:01:13.220Z,8.58
2019-05-06T20:03:47.619Z,8.20
2019-05-06T20:06:41.305Z,8.38
2019-05-06T20:09:33.974Z,8.83
2019-05-06T20:12:13.698Z,8.20
2019-05-06T20:14:48.297Z,8.63
2019-05-06T20:17:23.075Z,9.08
2019-05-06T20:19:58.217Z,8.78
2019-05-06T20:22:33.687Z,8.85
2019-05-06T20:25:08.219Z,8.45
2019-05-06T20:27:42.677Z,9.08
2019-05-06T20:30:18.447Z,9.35
2019-05-06T20:32:53.340Z,8.75
2019-05-06T20:35:28.142Z,8.40
2019-05-06T20:38:02.872Z,8.53
2019-05-06T20:40:38.514Z,8.68
2019-05-06T20:43:20.193Z,9.25
2019-05-06T20:45:48.713Z,8.55
2019-05-06T20:48:23.631Z,8.60
2019-05-06T20:50:58.523Z,9.40
2019-05-06T20:53:33.627Z,9.60
2019-05-06T20:56:08.132Z,9.30
2019-05-06T20:58:42.463Z,8.63
2019-05-06T21:01:16.935Z,9.38
2019-05-06T21:03:52.873Z,8.85
2019-05-06T21:06:26.825Z,9.15
2019-05-06T21:09:02.148Z,9.78
2019-05-06T21:11:37.947Z,8.95
2019-05-06T21:14:13.424Z,9.20
2019-05-06T21:16:48.341Z,9.00
2019-05-06T21:19:24.802Z,9.70
2019-05-06T21:21:59.267Z,8.73
2019-05-06T21:24:36.141Z,8.98
2019-05-06T21:27:12.400Z,9.48
2019-05-06T21:29:46.639Z,9.53
2019-05-06T21:32:21.972Z,9.20
2019-05-06T21:34:56.734Z,9.43
2019-05-06T21:37:31.430Z,8.98
2019-05-06T21:40:05.800Z,8.83
2019-05-06T21:42:40.383Z,8.73
2019-05-06T21:45:16.537Z,8.60
2019-05-06T21:47:52.848Z,8.70
2019-05-06T21:50:26.553Z,9.03
2019-05-06T21:53:02.768Z,8.73
2019-05-06T21:55:37.532Z,9.10
2019-05-06T21:58:12.450Z,9.35
2019-05-06T22:01:14.093Z,10.30
2019-05-06T22:03:48.713Z,8.30
2019-05-06T22:06:23.194Z,9.45
2019-05-06T22:08:57.594Z,8.60
2019-05-06T22:11:33.062Z,8.88
2019-05-06T22:14:07.423Z,9.28
2019-05-06T22:16:43.719Z,9.73
2019-05-06T22:19:18.005Z,9.03
2019-05-06T22:22:14.598Z,10.30
2019-05-06T22:24:55.023Z,9.23
2019-05-06T22:27:26.895Z,9.30
2019-05-06T22:30:03.262Z,9.50
2019-05-06T22:32:48.060Z,10.48
2019-05-06T22:35:23.084Z,9.78
2019-05-06T22:37:57.625Z,10.18
2019-05-06T22:40:32.771Z,10.40
2019-05-06T22:43:07.292Z,10.15
2019-05-06T22:45:42.560Z,9.85
2019-05-06T22:48:17.436Z,10.10
2019-05-06T22:50:53.038Z,10.93
2019-05-06T22:53:28.547Z,9.80
2019-05-06T22:56:04.524Z,10.43
2019-05-06T22:58:39.005Z,9.93
2019-05-06T23:01:34.955Z,10.43
2019-05-06T23:04:10.064Z,9.30
2019-05-06T23:06:44.624Z,9.38
2019-05-06T23:09:19.102Z,10.55
2019-05-06T23:11:54.431Z,10.43
2019-05-06T23:14:34.333Z,11.43
2019-05-06T23:17:08.782Z,10.68
2019-05-06T23:19:43.517Z,10.35
2019-05-06T23:22:18.115Z,9.93
2019-05-06T23:24:54.066Z,9.88
2019-05-06T23:27:27.888Z,10.58
2019-05-06T23:30:03.158Z,10.03
2019-05-06T23:32:38.196Z,9.98
2019-05-06T23:35:12.918Z,10.30
2019-05-06T23:38:22.955Z,10.03
2019-05-06T23:41:32.502Z,10.43
2019-05-06T23:44:45.533Z,10.00
2019-05-06T23:47:49.039Z,9.85
2019-05-06T23:50:57.188Z,9.65
2019-05-06T23:54:05.322Z,11.88
2019-05-06T23:56:45.990Z,10.18
2019-05-06T23:59:22.452Z,10.80
